Airfield :
LOGIN :

Register | Disclaimer

   EN    FR    IT 

 










Legend :    VFR   Marginal VFR   IFR   Intensive IFR   Very Intensive IFR
Visi :
Ceiling :
>= 8 km
>= 3000ft
5 to 8 km
1000 to 3000 ft
1500m to 5 km
500 to 1000 ft
800 to 1500m
200 to 500 ft
< 800m
< 200 ft
Symbols :   Thunderstorms  Fog  Heavy snow  Heavy precipitations  Wind > 20 kt
SIGMETs :     Misc.  Thunderstorms  Icing  Turbulence  Mountain Waves  Volcanic Ashes







- Airport Elevation : 436 ft
- IATA code : BTS


LZIB - Bratislava

CURRENT METAR :
  • 270600Z VRB02KT CAVOK 27/21 Q1018 NOSIG

EXPIRED METARs :
  • 270530Z VRB02KT CAVOK 25/21 Q1018 NOSIG
  • 270500Z 00000KT CAVOK 24/20 Q1018 NOSIG
  • 270449Z 00000KT CAVOK 24/21 Q1018
  • 270430Z 35003KT CAVOK 22/20 Q1018 NOSIG
  • 270400Z 33002KT CAVOK 22/20 Q1019 NOSIG
  • 270330Z 35003KT 9999 MIFG NSC 21/19 Q1019

TAF TAF LZIB
Valid from the 27 at 06:00 until the 28 at 06:00 UTC


270500Z 2706/2806 35003KT CAVOK
BECMG 2707/2709 32010KT
TEMPO 2709/2714 9999 SCT040 SCT100
PROB40
TEMPO 2711/2719 33015G25KT
BECMG 2719/2721 36007KT
No reported NOTAMs for that airfield.



MET'MAP, your aeronautical weather chart ! - Copyright ORBIFLY December 2007 - Disclaimer

ORBIFLY MET'MAP TEAM :

Programming & Development : Alexandra Zaïnal
Concept & Development : Baudouin d'Aumeries
Co-Development & Prog : Marc-Olivier Méhu
Technical & hardware support : Manuel Goepfert

Contact : metmap@orbifly.com




SOURCES & CREDITS :

   NOAA